createdAt,value
2023-04-10T00:02:23.779Z,13.50
2023-04-10T00:05:27.477Z,20.20
2023-04-10T00:08:30.112Z,14.20
2023-04-10T00:11:32.820Z,11.40
2023-04-10T00:14:40.602Z,11.80
2023-04-10T00:17:43.221Z,13.60
2023-04-10T00:20:46.254Z,13.70
2023-04-10T00:23:49.118Z,13.20
2023-04-10T00:26:51.802Z,10.10
2023-04-10T00:29:54.307Z,9.40
2023-04-10T00:32:57.048Z,10.00
2023-04-10T00:35:59.694Z,12.00
2023-04-10T00:39:02.305Z,12.90
2023-04-10T00:42:10.180Z,13.00
2023-04-10T00:45:12.786Z,9.70
2023-04-10T00:48:15.826Z,8.70
2023-04-10T00:51:20.827Z,9.50
2023-04-10T00:54:23.834Z,11.60
2023-04-10T00:57:27.204Z,11.70
2023-04-10T01:00:29.856Z,13.60
2023-04-10T01:03:40.699Z,10.50
2023-04-10T01:06:59.565Z,10.10
2023-04-10T01:10:14.052Z,9.80
2023-04-10T01:13:26.901Z,11.80
2023-04-10T01:16:40.962Z,13.80
2023-04-10T01:20:04.460Z,13.80
2023-04-10T01:27:47.031Z,9.70
2023-04-10T01:30:54.493Z,9.60
2023-04-10T01:34:06.307Z,11.90
2023-04-10T01:37:14.152Z,12.20
2023-04-10T01:40:19.592Z,13.20
2023-04-10T01:43:23.139Z,10.70
2023-04-10T01:46:27.725Z,9.50
2023-04-10T01:49:32.394Z,10.40
2023-04-10T01:52:43.950Z,11.80
2023-04-10T01:55:47.106Z,12.00
2023-04-10T01:58:51.027Z,13.70
2023-04-10T02:02:01.468Z,10.40
2023-04-10T02:05:04.647Z,10.10
2023-04-10T02:08:36.636Z,9.80
2023-04-10T02:12:05.992Z,12.10
2023-04-10T02:15:16.973Z,13.80
2023-04-10T02:18:22.342Z,12.60
2023-04-10T02:21:25.006Z,10.60
2023-04-10T02:24:36.982Z,10.20
2023-04-10T02:27:41.037Z,9.70
2023-04-10T02:30:43.615Z,11.90
2023-04-10T02:33:46.605Z,12.80
2023-04-10T02:36:49.147Z,13.50
2023-04-10T02:39:58.033Z,10.00
2023-04-10T02:43:00.803Z,9.10
2023-04-10T02:46:03.495Z,9.70
2023-04-10T02:49:07.703Z,11.40
2023-04-10T02:52:10.468Z,13.30
2023-04-10T02:55:13.223Z,12.70
2023-04-10T02:58:16.049Z,10.50
2023-04-10T03:01:18.887Z,10.10
2023-04-10T03:04:21.713Z,10.60
2023-04-10T03:07:54.087Z,10.10
2023-04-10T03:10:56.764Z,11.60
2023-04-10T03:13:59.521Z,12.90
2023-04-10T03:17:02.200Z,9.70
2023-04-10T03:20:05.500Z,10.40
2023-04-10T03:23:08.117Z,10.70
2023-04-10T03:26:10.794Z,11.20
2023-04-10T03:33:01.878Z,9.90
2023-04-10T03:36:05.252Z,10.70
2023-04-10T03:39:07.893Z,10.80
2023-04-10T03:42:11.423Z,12.60
2023-04-10T03:45:14.154Z,11.00
2023-04-10T03:48:18.018Z,9.50
2023-04-10T03:51:20.766Z,9.30
2023-04-10T03:54:23.409Z,10.20
2023-04-10T03:57:26.064Z,12.90
2023-04-10T04:00:28.684Z,12.20
2023-04-10T04:03:31.681Z,12.30
2023-04-10T04:06:43.039Z,10.50
2023-04-10T04:09:49.855Z,9.40
2023-04-10T04:13:16.684Z,10.00
2023-04-10T04:16:19.683Z,11.50
2023-04-10T04:19:22.477Z,12.20
2023-04-10T04:22:25.275Z,12.60
2023-04-10T04:25:27.876Z,10.20
2023-04-10T04:28:30.659Z,10.40
2023-04-10T04:31:35.350Z,10.20
2023-04-10T04:34:38.057Z,11.80
2023-04-10T04:37:40.967Z,12.80
2023-04-10T04:40:43.661Z,13.20
2023-04-10T04:43:47.694Z,10.30
2023-04-10T04:46:50.521Z,10.00
2023-04-10T04:49:53.313Z,10.70
2023-04-10T04:52:56.128Z,11.60
2023-04-10T04:55:58.958Z,12.90
2023-04-10T04:59:01.602Z,10.50
2023-04-10T05:02:18.940Z,10.40
2023-04-10T05:05:21.821Z,10.40
2023-04-10T05:08:24.590Z,11.50
2023-04-10T05:11:27.249Z,12.20
2023-04-10T05:14:29.919Z,10.90
2023-04-10T05:17:32.661Z,9.20
2023-04-10T05:20:36.077Z,9.40
2023-04-10T05:23:42.995Z,10.60
2023-04-10T05:26:47.885Z,12.20
2023-04-10T05:29:50.985Z,12.20
2023-04-10T05:32:53.671Z,10.60
2023-04-10T05:35:56.806Z,9.60
2023-04-10T05:38:59.553Z,10.20
2023-04-10T05:42:03.054Z,11.00
2023-04-10T05:45:06.497Z,13.10
2023-04-10T05:48:09.119Z,10.50
2023-04-10T05:51:11.818Z,9.60
2023-04-10T05:54:22.968Z,9.80
2023-04-10T05:57:29.647Z,11.60
2023-04-10T06:00:32.370Z,14.00
2023-04-10T06:03:35.554Z,10.90
2023-04-10T06:06:39.275Z,9.20
2023-04-10T06:09:44.046Z,10.70
2023-04-10T06:12:46.877Z,11.90
2023-04-10T06:15:49.653Z,13.20
2023-04-10T06:18:54.470Z,10.90
2023-04-10T06:22:19.521Z,9.80
2023-04-10T06:25:22.272Z,9.00
2023-04-10T06:28:24.975Z,11.00
2023-04-10T06:31:27.795Z,12.00
2023-04-10T06:34:37.204Z,10.60
2023-04-10T06:37:43.821Z,9.70
2023-04-10T06:40:46.844Z,10.70
2023-04-10T06:43:49.466Z,11.10
2023-04-10T06:46:52.164Z,11.50
2023-04-10T06:49:54.857Z,9.70
2023-04-10T06:53:00.130Z,8.60
2023-04-10T06:56:07.212Z,9.00
2023-04-10T06:59:12.903Z,10.60
2023-04-10T07:02:17.893Z,12.00
2023-04-10T07:05:21.168Z,9.60
2023-04-10T07:08:24.253Z,9.20
2023-04-10T07:11:27.065Z,9.40
2023-04-10T07:15:00.452Z,10.90
2023-04-10T07:18:03.439Z,11.80
2023-04-10T07:21:14.516Z,9.70
2023-04-10T07:24:18.135Z,10.00
2023-04-10T07:27:31.547Z,9.70
2023-04-10T07:30:35.116Z,11.40
2023-04-10T07:33:38.929Z,12.80
2023-04-10T07:36:41.627Z,10.70
2023-04-10T07:40:15.413Z,9.90
2023-04-10T07:43:18.126Z,10.40
2023-04-10T07:46:21.171Z,11.20
2023-04-10T07:49:23.903Z,12.20
2023-04-10T07:52:26.624Z,10.20
2023-04-10T07:55:29.228Z,9.30
2023-04-10T07:58:33.236Z,10.10
2023-04-10T08:01:36.035Z,10.70
2023-04-10T08:04:38.814Z,12.80
2023-04-10T08:07:41.557Z,9.70
2023-04-10T08:10:44.179Z,9.00
2023-04-10T08:13:47.053Z,8.50
2023-04-10T08:16:49.820Z,9.80
2023-04-10T08:19:53.163Z,11.20
2023-04-10T08:22:58.866Z,8.10
2023-04-10T08:26:06.515Z,8.20
2023-04-10T08:29:09.165Z,8.80
2023-04-10T08:32:11.891Z,9.60
2023-04-10T08:35:14.706Z,10.80
2023-04-10T08:38:17.509Z,8.30
2023-04-10T08:41:21.015Z,8.40
2023-04-10T08:44:23.621Z,9.80
2023-04-10T08:47:28.677Z,11.10
2023-04-10T08:50:33.952Z,11.80
2023-04-10T08:53:41.414Z,8.80
2023-04-10T08:56:58.715Z,9.80
2023-04-10T09:00:09.639Z,9.40
2023-04-10T09:03:23.168Z,11.70
2023-04-10T09:06:29.096Z,13.90
2023-04-10T09:09:34.706Z,9.40
2023-04-10T09:12:48.841Z,9.50
2023-04-10T09:16:01.428Z,11.00
2023-04-10T09:19:06.481Z,11.50
2023-04-10T09:22:47.761Z,13.40
2023-04-10T09:25:51.343Z,9.10
2023-04-10T09:28:58.493Z,9.60
2023-04-10T09:32:01.252Z,10.40
2023-04-10T09:35:06.845Z,12.20
2023-04-10T09:38:17.996Z,9.20
2023-04-10T09:41:20.778Z,9.10
2023-04-10T09:44:34.540Z,11.00
2023-04-10T09:47:37.977Z,13.20
2023-04-10T09:50:41.202Z,13.00
2023-04-10T09:53:51.050Z,9.20
2023-04-10T09:56:54.032Z,8.40
2023-04-10T10:00:08.478Z,9.60
2023-04-10T10:03:13.972Z,10.70
2023-04-10T10:06:17.161Z,11.60
2023-04-10T10:09:20.363Z,8.90
2023-04-10T10:12:28.933Z,8.70
2023-04-10T10:18:53.874Z,12.20
2023-04-10T10:22:00.409Z,12.50
2023-04-10T10:25:03.964Z,8.50
2023-04-10T10:28:06.984Z,8.20
2023-04-10T10:31:10.408Z,9.90
2023-04-10T10:34:15.227Z,10.60
2023-04-10T10:37:19.238Z,11.90
2023-04-10T10:40:32.141Z,11.40
2023-04-10T10:44:01.930Z,7.70
2023-04-10T10:47:16.104Z,7.80
2023-04-10T10:50:18.875Z,10.10
2023-04-10T10:53:43.081Z,11.00
2023-04-10T10:56:46.065Z,10.70
2023-04-10T10:59:51.230Z,11.70
2023-04-10T11:03:09.635Z,7.40
2023-04-10T11:06:19.798Z,8.80
2023-04-10T11:09:51.334Z,9.70
2023-04-10T11:13:19.592Z,11.40
2023-04-10T11:16:41.113Z,11.40
2023-04-10T11:20:04.260Z,10.70
2023-04-10T11:23:12.515Z,10.60
2023-04-10T11:29:38.676Z,7.30
2023-04-10T11:32:51.004Z,9.40
2023-04-10T11:35:53.941Z,8.70
2023-04-10T11:39:01.027Z,9.60
2023-04-10T11:42:04.929Z,10.30
2023-04-10T11:45:27.817Z,10.00
2023-04-10T11:48:31.589Z,10.50
2023-04-10T11:51:34.450Z,10.40
2023-04-10T11:54:37.929Z,11.00
2023-04-10T11:57:40.941Z,11.00
2023-04-10T12:00:43.726Z,11.20
2023-04-10T12:03:46.710Z,10.80
2023-04-10T12:06:54.031Z,8.30
2023-04-10T12:10:00.565Z,8.60
2023-04-10T12:13:03.455Z,9.40
2023-04-10T12:16:10.981Z,10.40
2023-04-10T12:19:16.003Z,9.80
2023-04-10T12:22:18.896Z,10.50
2023-04-10T12:25:21.789Z,9.20
2023-04-10T12:28:24.637Z,9.60
2023-04-10T12:31:36.425Z,8.50
2023-04-10T12:38:37.865Z,9.00
2023-04-10T12:41:40.665Z,9.50
2023-04-10T12:48:35.968Z,9.40
2023-04-10T12:51:48.898Z,8.40
2023-04-10T12:54:51.668Z,9.00
2023-04-10T12:58:18.169Z,8.00
2023-04-10T13:01:21.569Z,8.10
2023-04-10T13:04:24.655Z,8.40
2023-04-10T13:07:27.541Z,7.80
2023-04-10T13:10:30.375Z,8.20
2023-04-10T13:13:33.340Z,7.60
2023-04-10T13:16:36.243Z,7.70
2023-04-10T13:19:43.757Z,8.20
2023-04-10T13:22:46.860Z,7.60
2023-04-10T13:25:49.886Z,7.40
2023-04-10T13:28:54.433Z,7.40
2023-04-10T13:31:57.575Z,7.50
2023-04-10T13:35:00.903Z,7.90
2023-04-10T13:38:04.130Z,7.70
2023-04-10T13:41:07.346Z,7.30
2023-04-10T13:44:10.562Z,6.80
2023-04-10T13:47:18.224Z,6.60
2023-04-10T13:50:21.282Z,6.60
2023-04-10T13:53:24.549Z,7.90
2023-04-10T13:56:27.597Z,7.90
2023-04-10T13:59:31.134Z,7.50
2023-04-10T14:02:39.996Z,8.10
2023-04-10T14:05:43.185Z,8.20
2023-04-10T14:08:47.257Z,8.00
2023-04-10T14:11:52.427Z,8.50
2023-04-10T14:14:57.014Z,8.00
2023-04-10T14:18:04.274Z,7.20
2023-04-10T14:21:08.491Z,7.80
2023-04-10T14:24:12.183Z,7.30
2023-04-10T14:27:16.357Z,7.70
2023-04-10T14:30:20.709Z,7.50
2023-04-10T14:33:23.672Z,7.80
2023-04-10T14:36:27.882Z,7.20
2023-04-10T14:39:31.517Z,7.70
2023-04-10T14:42:34.306Z,7.70
2023-04-10T14:45:37.110Z,6.90
2023-04-10T14:48:40.076Z,7.60
2023-04-10T14:51:44.060Z,8.30
2023-04-10T14:54:46.848Z,8.50
2023-04-10T14:57:50.040Z,7.90
2023-04-10T15:00:53.035Z,8.60
2023-04-10T15:03:56.334Z,7.70
2023-04-10T15:06:59.266Z,7.20
2023-04-10T15:10:02.088Z,7.40
2023-04-10T15:13:06.105Z,7.60
2023-04-10T15:16:09.289Z,8.30
2023-04-10T15:19:12.073Z,7.30
2023-04-10T15:22:18.028Z,7.50
2023-04-10T15:25:21.107Z,7.70
2023-04-10T15:28:23.916Z,7.60
2023-04-10T15:31:26.729Z,7.10
2023-04-10T15:34:29.435Z,6.20
2023-04-10T15:37:34.316Z,6.70
2023-04-10T15:40:36.990Z,6.00
2023-04-10T15:43:39.750Z,6.70
2023-04-10T15:46:43.386Z,6.40
2023-04-10T15:49:46.193Z,6.50
2023-04-10T15:52:48.980Z,6.70
2023-04-10T15:55:51.852Z,6.70
2023-04-10T15:58:54.618Z,6.00
2023-04-10T16:01:57.833Z,6.50
2023-04-10T16:05:01.059Z,7.10
2023-04-10T16:08:04.081Z,6.90
2023-04-10T16:11:06.923Z,6.80
2023-04-10T16:14:10.060Z,6.90
2023-04-10T16:17:12.752Z,7.60
2023-04-10T16:20:15.514Z,7.60
2023-04-10T16:23:18.254Z,7.20
2023-04-10T16:26:21.449Z,7.70
2023-04-10T16:29:24.559Z,8.50
2023-04-10T16:32:28.446Z,7.70
2023-04-10T16:35:32.589Z,8.40
2023-04-10T16:38:35.834Z,7.90
2023-04-10T16:41:38.905Z,8.20
2023-04-10T16:44:41.639Z,7.90
2023-04-10T16:47:46.193Z,7.20
2023-04-10T16:50:49.078Z,6.90
2023-04-10T16:53:52.174Z,7.30
2023-04-10T16:56:55.815Z,7.30
2023-04-10T16:59:59.350Z,7.20
2023-04-10T17:03:02.676Z,7.40
2023-04-10T17:06:05.931Z,7.80
2023-04-10T17:09:08.664Z,7.50
2023-04-10T17:12:11.611Z,7.00
2023-04-10T17:15:14.842Z,7.60
2023-04-10T17:18:20.053Z,7.30
2023-04-10T17:21:22.747Z,8.20
2023-04-10T17:24:31.552Z,7.70
2023-04-10T17:27:35.135Z,7.90
2023-04-10T17:30:38.269Z,7.70
2023-04-10T17:33:44.660Z,7.10
2023-04-10T17:36:49.673Z,7.50
2023-04-10T17:39:54.305Z,7.60
2023-04-10T17:42:56.986Z,7.80
2023-04-10T17:46:02.612Z,9.10
2023-04-10T17:49:05.905Z,7.70
2023-04-10T17:52:08.710Z,8.10
2023-04-10T17:55:11.826Z,8.70
2023-04-10T17:58:15.116Z,8.20
2023-04-10T18:01:31.013Z,8.80
2023-04-10T18:04:34.160Z,8.70
2023-04-10T18:07:38.105Z,8.20
2023-04-10T18:10:41.208Z,8.70
2023-04-10T18:13:44.480Z,8.60
2023-04-10T18:16:48.964Z,9.10
2023-04-10T18:19:55.812Z,9.60
2023-04-10T18:22:58.825Z,9.60
2023-04-10T18:26:01.748Z,10.90
2023-04-10T18:29:04.944Z,11.20
2023-04-10T18:32:08.146Z,11.70
2023-04-10T18:35:11.097Z,11.00
2023-04-10T18:38:14.231Z,11.90
2023-04-10T18:41:17.359Z,13.00
2023-04-10T18:44:20.374Z,12.70
2023-04-10T18:47:23.161Z,13.30
2023-04-10T18:50:26.081Z,12.30
2023-04-10T18:53:29.248Z,12.40
2023-04-10T18:56:35.394Z,12.50
2023-04-10T18:59:38.486Z,12.10
2023-04-10T19:02:41.573Z,12.50
2023-04-10T19:05:44.633Z,12.30
2023-04-10T19:08:47.738Z,13.80
2023-04-10T19:11:50.763Z,13.50
2023-04-10T19:14:53.833Z,12.30
2023-04-10T19:17:56.659Z,12.10
2023-04-10T19:20:59.563Z,12.80
2023-04-10T19:24:02.733Z,12.90
2023-04-10T19:27:06.524Z,11.40
2023-04-10T19:30:09.630Z,12.00
2023-04-10T19:33:12.378Z,12.40
2023-04-10T19:36:18.083Z,10.80
2023-04-10T19:39:21.454Z,12.50
2023-04-10T19:42:24.550Z,12.50
2023-04-10T19:45:29.256Z,12.30
2023-04-10T19:48:32.963Z,12.60
2023-04-10T19:51:35.776Z,12.40
2023-04-10T19:54:38.485Z,13.20
2023-04-10T19:57:41.707Z,13.30
2023-04-10T20:00:44.486Z,13.90
2023-04-10T20:03:47.443Z,14.50
2023-04-10T20:06:50.649Z,13.60
2023-04-10T20:09:53.375Z,14.60
2023-04-10T20:12:56.203Z,14.40
2023-04-10T20:16:02.305Z,13.40
2023-04-10T20:19:05.052Z,15.20
2023-04-10T20:22:08.158Z,14.60
2023-04-10T20:25:10.884Z,14.50
2023-04-10T20:28:15.376Z,14.90
2023-04-10T20:31:18.069Z,15.30
2023-04-10T20:34:20.748Z,16.60
2023-04-10T20:37:23.502Z,15.80
2023-04-10T20:40:26.767Z,16.20
2023-04-10T20:43:29.421Z,15.80
2023-04-10T20:46:32.176Z,15.50
2023-04-10T20:49:37.545Z,15.90
2023-04-10T20:52:40.483Z,16.10
2023-04-10T20:55:43.123Z,16.30
2023-04-10T20:58:46.098Z,14.90
2023-04-10T21:01:49.001Z,15.70
2023-04-10T21:04:54.658Z,16.00
2023-04-10T21:07:57.470Z,15.70
2023-04-10T21:11:00.155Z,16.10
2023-04-10T21:14:03.340Z,15.40
2023-04-10T21:17:06.014Z,17.20
2023-04-10T21:20:09.045Z,17.60
2023-04-10T21:23:11.742Z,17.00
2023-04-10T21:26:14.515Z,17.10
2023-04-10T21:29:17.272Z,16.40
2023-04-10T21:32:21.971Z,17.00
2023-04-10T21:35:24.855Z,16.30
2023-04-10T21:38:28.240Z,17.20
2023-04-10T21:41:31.020Z,17.00
2023-04-10T21:44:33.664Z,16.20
2023-04-10T21:47:36.318Z,15.70
2023-04-10T21:50:45.283Z,15.80
2023-04-10T21:53:47.922Z,16.70
2023-04-10T21:56:50.559Z,16.80
2023-04-10T21:59:53.167Z,16.90
2023-04-10T22:02:56.118Z,16.70
2023-04-10T22:05:58.994Z,15.90
2023-04-10T22:09:01.660Z,16.80
2023-04-10T22:12:04.584Z,17.40
2023-04-10T22:15:07.990Z,16.70
2023-04-10T22:18:10.814Z,17.90
2023-04-10T22:21:13.533Z,18.80
2023-04-10T22:24:16.266Z,17.00
2023-04-10T22:27:26.402Z,17.70
2023-04-10T22:30:31.421Z,18.40
2023-04-10T22:33:34.162Z,19.00
2023-04-10T22:36:37.070Z,18.20
2023-04-10T22:39:39.749Z,18.60
2023-04-10T22:42:43.763Z,20.10
2023-04-10T22:45:47.932Z,19.50
2023-04-10T22:48:50.720Z,18.70
2023-04-10T22:51:53.463Z,20.60
2023-04-10T22:54:57.594Z,19.60
2023-04-10T22:58:01.168Z,19.70
2023-04-10T23:01:03.882Z,15.30
2023-04-10T23:04:06.534Z,14.10
2023-04-10T23:07:09.180Z,14.70
2023-04-10T23:10:11.907Z,16.70
2023-04-10T23:13:14.598Z,17.50
2023-04-10T23:16:17.361Z,21.90
2023-04-10T23:19:20.070Z,19.40
2023-04-10T23:22:22.722Z,20.70
2023-04-10T23:25:25.436Z,20.90
2023-04-10T23:28:28.633Z,20.50
2023-04-10T23:31:31.512Z,20.50
2023-04-10T23:34:34.282Z,19.90
2023-04-10T23:37:37.376Z,20.60
2023-04-10T23:40:40.031Z,22.30
2023-04-10T23:43:42.719Z,16.80
2023-04-10T23:46:45.546Z,16.20
2023-04-10T23:49:48.330Z,16.60
2023-04-10T23:52:52.031Z,18.10
2023-04-10T23:55:54.819Z,20.60
2023-04-10T23:58:57.954Z,20.60
